createdAt,value
2023-05-07T00:01:29.635Z,14.32
2023-05-07T00:03:56.607Z,9.85
2023-05-07T00:06:23.754Z,11.50
2023-05-07T00:08:50.738Z,10.60
2023-05-07T00:11:17.465Z,11.13
2023-05-07T00:13:44.171Z,6.88
2023-05-07T00:16:10.960Z,15.18
2023-05-07T00:18:37.809Z,10.18
2023-05-07T00:21:04.662Z,8.85
2023-05-07T00:23:31.426Z,14.77
2023-05-07T00:25:58.134Z,10.57
2023-05-07T00:28:27.370Z,11.15
2023-05-07T00:30:54.100Z,12.45
2023-05-07T00:33:21.913Z,16.00
2023-05-07T00:35:48.914Z,9.90
2023-05-07T00:38:16.281Z,8.80
2023-05-07T00:40:42.936Z,11.07
2023-05-07T00:43:10.046Z,15.40
2023-05-07T00:45:36.973Z,13.98
2023-05-07T00:48:04.718Z,14.13
2023-05-07T00:50:32.273Z,13.77
2023-05-07T00:52:59.962Z,11.32
2023-05-07T00:55:27.038Z,6.75
2023-05-07T00:57:53.829Z,10.60
2023-05-07T01:00:21.008Z,15.13
2023-05-07T01:02:47.990Z,8.70
2023-05-07T01:05:17.881Z,8.48
2023-05-07T01:07:46.043Z,13.93
2023-05-07T01:10:13.769Z,11.73
2023-05-07T01:12:42.423Z,14.68
2023-05-07T01:15:10.449Z,8.38
2023-05-07T01:17:39.057Z,9.52
2023-05-07T01:20:08.158Z,13.05
2023-05-07T01:22:37.452Z,10.77
2023-05-07T01:25:05.794Z,10.95
2023-05-07T01:27:34.307Z,10.85
2023-05-07T01:30:01.315Z,7.50
2023-05-07T01:32:46.679Z,9.27
2023-05-07T01:35:21.229Z,8.65
2023-05-07T01:37:49.199Z,7.82
2023-05-07T01:40:16.215Z,11.18
2023-05-07T01:42:44.750Z,8.80
2023-05-07T01:45:11.834Z,12.90
2023-05-07T01:47:39.216Z,11.35
2023-05-07T01:50:11.152Z,12.18
2023-05-07T01:52:39.744Z,10.45
2023-05-07T01:55:07.717Z,6.38
2023-05-07T01:57:34.429Z,8.63
2023-05-07T02:00:01.186Z,7.32
2023-05-07T02:02:27.986Z,5.45
2023-05-07T02:04:54.840Z,11.65
2023-05-07T02:07:21.633Z,8.02
2023-05-07T02:09:48.421Z,10.45
2023-05-07T02:12:15.133Z,13.13
2023-05-07T02:14:41.899Z,12.35
2023-05-07T02:17:08.927Z,8.85
2023-05-07T02:19:36.426Z,9.07
2023-05-07T02:22:03.185Z,9.77
2023-05-07T02:24:29.927Z,8.77
2023-05-07T02:26:56.631Z,7.63
2023-05-07T02:29:23.343Z,7.65
2023-05-07T02:31:54.312Z,9.93
2023-05-07T02:34:21.464Z,7.47
2023-05-07T02:36:48.239Z,10.20
2023-05-07T02:39:15.297Z,10.55
2023-05-07T02:41:42.113Z,9.70
2023-05-07T02:44:08.853Z,10.23
2023-05-07T02:46:35.884Z,5.65
2023-05-07T02:49:02.568Z,7.20
2023-05-07T02:51:29.666Z,13.13
2023-05-07T02:53:56.446Z,8.55
2023-05-07T02:56:23.240Z,6.20
2023-05-07T02:58:49.962Z,7.75
2023-05-07T03:01:16.832Z,11.20
2023-05-07T03:03:43.737Z,8.98
2023-05-07T03:06:10.785Z,12.98
2023-05-07T03:08:37.825Z,9.68
2023-05-07T03:11:04.644Z,14.48
2023-05-07T03:13:31.644Z,8.07
2023-05-07T03:15:58.348Z,7.63
2023-05-07T03:18:25.118Z,8.32
2023-05-07T03:20:52.957Z,5.85
2023-05-07T03:23:19.910Z,5.45
2023-05-07T03:25:46.732Z,13.57
2023-05-07T03:28:13.432Z,7.47
2023-05-07T03:30:40.226Z,15.05
2023-05-07T03:33:06.924Z,5.85
2023-05-07T03:35:33.681Z,9.85
2023-05-07T03:38:00.526Z,5.28
2023-05-07T03:40:27.189Z,5.50
2023-05-07T03:42:54.002Z,7.32
2023-05-07T03:45:20.983Z,9.50
2023-05-07T03:47:47.704Z,7.47
2023-05-07T03:50:14.548Z,9.20
2023-05-07T03:52:41.869Z,11.65
2023-05-07T03:55:09.289Z,8.77
2023-05-07T03:57:35.964Z,8.32
2023-05-07T04:00:03.202Z,9.35
2023-05-07T04:02:29.988Z,9.93
2023-05-07T04:04:57.276Z,7.80
2023-05-07T04:07:24.025Z,6.00
2023-05-07T04:09:51.205Z,4.72
2023-05-07T04:12:17.929Z,5.88
2023-05-07T04:14:44.659Z,4.95
2023-05-07T04:17:11.887Z,5.80
2023-05-07T04:19:38.785Z,5.78
2023-05-07T04:22:05.510Z,7.50
2023-05-07T04:24:33.771Z,6.40
2023-05-07T04:27:00.772Z,4.22
2023-05-07T04:29:28.239Z,7.63
2023-05-07T04:31:56.923Z,8.10
2023-05-07T04:34:23.657Z,3.45
2023-05-07T04:36:50.693Z,7.70
2023-05-07T04:39:17.427Z,8.48
2023-05-07T04:41:44.171Z,7.10
2023-05-07T04:44:11.954Z,7.68
2023-05-07T04:46:38.761Z,8.40
2023-05-07T04:49:06.834Z,6.70
2023-05-07T04:51:33.779Z,6.70
2023-05-07T04:54:00.523Z,10.00
2023-05-07T04:56:30.228Z,6.10
2023-05-07T04:58:57.068Z,6.65
2023-05-07T05:01:23.915Z,4.45
2023-05-07T05:03:50.802Z,6.00
2023-05-07T05:06:17.625Z,5.53
2023-05-07T05:08:44.600Z,6.28
2023-05-07T05:11:11.636Z,5.32
2023-05-07T05:13:38.407Z,8.35
2023-05-07T05:16:05.514Z,4.28
2023-05-07T05:18:32.313Z,5.70
2023-05-07T05:20:59.040Z,9.77
2023-05-07T05:23:25.764Z,5.70
2023-05-07T05:25:57.549Z,4.43
2023-05-07T05:28:24.762Z,8.95
2023-05-07T05:30:51.804Z,5.40
2023-05-07T05:33:18.537Z,8.50
2023-05-07T05:35:45.264Z,9.45
2023-05-07T05:38:12.128Z,3.15
2023-05-07T05:40:38.855Z,8.75
2023-05-07T05:43:05.553Z,4.97
2023-05-07T05:45:32.322Z,5.80
2023-05-07T05:47:59.128Z,8.48
2023-05-07T05:50:26.068Z,9.63
2023-05-07T05:52:52.835Z,6.25
2023-05-07T05:55:19.779Z,4.50
2023-05-07T05:57:47.174Z,3.97
2023-05-07T06:00:14.553Z,6.63
2023-05-07T06:02:41.673Z,7.95
2023-05-07T06:05:08.956Z,7.80
2023-05-07T06:07:35.926Z,5.50
2023-05-07T06:10:03.166Z,5.55
2023-05-07T06:12:30.225Z,7.15
2023-05-07T06:14:56.966Z,6.85
2023-05-07T06:17:23.716Z,7.78
2023-05-07T06:19:50.665Z,5.03
2023-05-07T06:22:17.448Z,6.15
2023-05-07T06:24:44.289Z,3.92
2023-05-07T06:27:11.056Z,3.15
2023-05-07T06:29:38.257Z,5.80
2023-05-07T06:32:12.646Z,5.68
2023-05-07T06:34:40.345Z,5.18
2023-05-07T06:37:07.270Z,5.15
2023-05-07T06:39:34.619Z,4.72
2023-05-07T06:42:02.787Z,6.28
2023-05-07T06:44:29.653Z,5.70
2023-05-07T06:46:56.435Z,7.35
2023-05-07T06:49:23.176Z,8.23
2023-05-07T06:51:50.089Z,5.20
2023-05-07T06:54:17.663Z,6.53
2023-05-07T06:56:44.406Z,4.90
2023-05-07T06:59:11.142Z,5.97
2023-05-07T07:01:38.714Z,5.47
2023-05-07T07:04:05.654Z,9.82
2023-05-07T07:06:32.967Z,6.65
2023-05-07T07:09:01.040Z,6.55
2023-05-07T07:11:27.757Z,4.88
2023-05-07T07:13:55.544Z,6.75
2023-05-07T07:16:23.025Z,10.15
2023-05-07T07:18:49.823Z,5.05
2023-05-07T07:21:16.496Z,6.40
2023-05-07T07:23:43.369Z,9.32
2023-05-07T07:26:10.144Z,5.53
2023-05-07T07:28:45.284Z,8.63
2023-05-07T07:31:13.021Z,5.78
2023-05-07T07:33:40.925Z,6.70
2023-05-07T07:36:08.436Z,8.45
2023-05-07T07:38:36.109Z,4.60
2023-05-07T07:41:03.606Z,7.97
2023-05-07T07:43:30.487Z,4.75
2023-05-07T07:45:57.180Z,5.35
2023-05-07T07:48:23.957Z,3.85
2023-05-07T07:50:52.295Z,4.68
2023-05-07T07:53:19.751Z,3.15
2023-05-07T07:55:46.877Z,6.25
2023-05-07T07:58:13.760Z,5.43
2023-05-07T08:00:40.703Z,5.22
2023-05-07T08:03:10.117Z,8.13
2023-05-07T08:05:37.665Z,8.77
2023-05-07T08:08:04.830Z,9.30
2023-05-07T08:10:35.303Z,6.38
2023-05-07T08:13:04.527Z,7.38
2023-05-07T08:15:31.389Z,3.28
2023-05-07T08:18:01.155Z,8.95
2023-05-07T08:20:28.310Z,6.70
2023-05-07T08:22:55.145Z,2.67
2023-05-07T08:25:21.932Z,2.67
2023-05-07T08:27:48.800Z,6.38
2023-05-07T08:30:15.914Z,6.10
2023-05-07T08:32:42.822Z,2.67
2023-05-07T08:35:10.418Z,5.82
2023-05-07T08:37:37.176Z,5.80
2023-05-07T08:40:05.461Z,3.28
2023-05-07T08:42:37.709Z,4.00
2023-05-07T08:45:06.893Z,4.40
2023-05-07T08:47:43.539Z,2.15
2023-05-07T08:50:10.841Z,4.10
2023-05-07T08:52:38.253Z,4.05
2023-05-07T08:55:05.796Z,4.00
2023-05-07T08:57:32.742Z,4.07
2023-05-07T09:00:05.341Z,2.97
2023-05-07T09:02:32.222Z,3.30
2023-05-07T09:04:59.047Z,4.47
2023-05-07T09:07:27.257Z,4.10
2023-05-07T09:09:55.904Z,3.63
2023-05-07T09:12:23.209Z,5.38
2023-05-07T09:14:51.035Z,3.13
2023-05-07T09:17:18.155Z,3.63
2023-05-07T09:19:49.234Z,4.78
2023-05-07T09:22:16.031Z,6.15
2023-05-07T09:24:49.221Z,5.75
2023-05-07T09:27:16.246Z,3.45
2023-05-07T09:29:44.231Z,2.20
2023-05-07T09:32:11.251Z,5.53
2023-05-07T09:34:38.119Z,4.82
2023-05-07T09:37:06.061Z,4.95
2023-05-07T09:39:49.094Z,4.68
2023-05-07T09:42:16.204Z,5.15
2023-05-07T09:44:45.393Z,3.47
2023-05-07T09:47:18.765Z,3.30
2023-05-07T09:49:49.129Z,4.85
2023-05-07T09:52:17.213Z,1.75
2023-05-07T09:54:45.225Z,4.50
2023-05-07T09:57:15.893Z,3.67
2023-05-07T09:59:44.966Z,6.10
2023-05-07T10:02:13.745Z,4.68
2023-05-07T10:04:41.603Z,4.65
2023-05-07T10:07:10.088Z,2.20
2023-05-07T10:09:39.586Z,3.83
2023-05-07T10:12:07.621Z,3.67
2023-05-07T10:14:35.054Z,3.67
2023-05-07T10:17:03.689Z,5.35
2023-05-07T10:19:30.926Z,1.60
2023-05-07T10:22:04.058Z,7.20
2023-05-07T10:24:40.748Z,2.65
2023-05-07T10:27:11.708Z,3.63
2023-05-07T10:29:50.729Z,2.60
2023-05-07T10:32:29.783Z,2.97
2023-05-07T10:35:00.166Z,4.85
2023-05-07T10:37:27.531Z,4.13
2023-05-07T10:39:54.486Z,3.13
2023-05-07T10:42:21.334Z,4.30
2023-05-07T10:44:48.076Z,4.18
2023-05-07T10:47:19.480Z,4.65
2023-05-07T10:49:46.537Z,3.13
2023-05-07T10:52:18.954Z,5.00
2023-05-07T10:54:47.819Z,3.65
2023-05-07T10:57:32.749Z,3.58
2023-05-07T10:59:59.589Z,6.22
2023-05-07T11:03:16.141Z,2.72
2023-05-07T11:05:43.938Z,3.13
2023-05-07T11:08:11.097Z,3.25
2023-05-07T11:10:58.360Z,2.17
2023-05-07T11:13:46.250Z,2.30
2023-05-07T11:16:28.373Z,3.20
2023-05-07T11:18:57.322Z,4.22
2023-05-07T11:21:38.416Z,3.28
2023-05-07T11:24:06.617Z,3.37
2023-05-07T11:26:51.406Z,2.75
2023-05-07T11:29:22.709Z,4.72
2023-05-07T11:31:51.173Z,1.40
2023-05-07T11:34:25.797Z,2.27
2023-05-07T11:36:53.400Z,2.22
2023-05-07T11:39:36.099Z,2.70
2023-05-07T11:42:03.545Z,3.85
2023-05-07T11:44:47.377Z,2.40
2023-05-07T11:47:23.628Z,3.05
2023-05-07T11:49:51.683Z,3.70
2023-05-07T11:52:20.414Z,5.05
2023-05-07T11:55:05.771Z,6.35
2023-05-07T11:57:34.341Z,5.45
2023-05-07T12:00:03.242Z,5.40
2023-05-07T12:02:30.166Z,4.68
2023-05-07T12:04:57.150Z,2.17
2023-05-07T12:07:26.053Z,4.50
2023-05-07T12:09:53.364Z,1.30
2023-05-07T12:12:20.108Z,2.65
2023-05-07T12:14:47.270Z,3.42
2023-05-07T12:17:15.642Z,5.65
2023-05-07T12:19:44.783Z,3.25
2023-05-07T12:22:13.160Z,4.57
2023-05-07T12:24:49.337Z,5.88
2023-05-07T12:27:18.159Z,4.60
2023-05-07T12:29:51.287Z,3.65
2023-05-07T12:32:20.679Z,6.95
2023-05-07T12:34:51.159Z,3.58
2023-05-07T12:37:23.617Z,4.50
2023-05-07T12:40:04.286Z,8.07
2023-05-07T12:42:36.268Z,9.10
2023-05-07T12:45:14.252Z,7.78
2023-05-07T12:47:46.195Z,7.10
2023-05-07T12:52:41.574Z,2.22
2023-05-07T12:55:09.698Z,4.40
2023-05-07T12:57:41.434Z,2.63
2023-05-07T13:00:08.802Z,6.00
2023-05-07T13:02:39.023Z,6.47
2023-05-07T13:05:06.294Z,6.65
2023-05-07T13:07:33.092Z,7.25
2023-05-07T13:09:59.763Z,3.70
2023-05-07T13:12:26.479Z,4.65
2023-05-07T13:14:53.218Z,4.18
2023-05-07T13:17:20.140Z,3.75
2023-05-07T13:19:47.032Z,4.63
2023-05-07T13:22:13.871Z,2.13
2023-05-07T13:24:42.794Z,4.65
2023-05-07T13:27:09.566Z,2.78
2023-05-07T13:29:36.672Z,1.60
2023-05-07T13:32:03.602Z,16.67
2023-05-07T13:34:30.333Z,2.75
2023-05-07T13:36:57.189Z,1.50
2023-05-07T13:39:23.921Z,2.70
2023-05-07T13:41:50.836Z,1.13
2023-05-07T13:44:17.554Z,2.08
2023-05-07T13:46:44.294Z,1.55
2023-05-07T13:49:12.326Z,2.35
2023-05-07T13:51:39.089Z,1.60
2023-05-07T13:54:05.852Z,3.13
2023-05-07T13:56:33.532Z,0.85
2023-05-07T13:59:01.147Z,2.63
2023-05-07T14:01:28.819Z,0.95
2023-05-07T14:03:58.194Z,1.02
2023-05-07T14:06:25.131Z,0.75
2023-05-07T14:08:52.217Z,0.65
2023-05-07T14:11:19.024Z,0.60
2023-05-07T14:13:45.936Z,4.50
2023-05-07T14:16:13.007Z,1.98
2023-05-07T14:18:40.126Z,5.05
2023-05-07T14:21:10.986Z,2.08
2023-05-07T14:23:37.877Z,1.40
2023-05-07T14:26:04.772Z,1.33
2023-05-07T14:28:32.337Z,1.33
2023-05-07T14:30:59.321Z,3.75
2023-05-07T14:33:26.355Z,2.70
2023-05-07T14:35:53.053Z,4.60
2023-05-07T14:38:19.836Z,2.75
2023-05-07T14:40:48.980Z,1.45
2023-05-07T14:43:15.781Z,1.90
2023-05-07T14:45:42.574Z,1.98
2023-05-07T14:48:10.412Z,1.70
2023-05-07T14:50:37.234Z,2.10
2023-05-07T14:53:04.959Z,1.15
2023-05-07T14:55:33.395Z,1.23
2023-05-07T14:58:01.240Z,1.30
2023-05-07T15:00:27.993Z,2.53
2023-05-07T15:03:01.659Z,1.10
2023-05-07T15:05:28.444Z,1.55
2023-05-07T15:07:57.604Z,1.67
2023-05-07T15:10:24.548Z,1.83
2023-05-07T15:12:51.318Z,3.88
2023-05-07T15:15:18.110Z,1.77
2023-05-07T15:17:44.852Z,2.17
2023-05-07T15:20:11.752Z,1.75
2023-05-07T15:22:38.472Z,1.00
2023-05-07T15:25:05.633Z,1.65
2023-05-07T15:27:32.449Z,2.85
2023-05-07T15:29:59.936Z,2.47
2023-05-07T15:32:26.905Z,4.30
2023-05-07T15:34:53.654Z,2.05
2023-05-07T15:37:20.369Z,10.73
2023-05-07T15:39:47.168Z,3.33
2023-05-07T15:42:13.905Z,2.65
2023-05-07T15:44:40.663Z,4.32
2023-05-07T15:47:07.380Z,1.67
2023-05-07T15:49:34.045Z,1.85
2023-05-07T15:52:00.815Z,3.42
2023-05-07T15:54:27.838Z,2.63
2023-05-07T15:56:54.747Z,3.22
2023-05-07T15:59:21.888Z,2.17
2023-05-07T16:01:48.895Z,3.08
2023-05-07T16:04:15.921Z,4.95
2023-05-07T16:06:43.738Z,3.83
2023-05-07T16:09:10.522Z,3.13
2023-05-07T16:11:37.285Z,6.00
2023-05-07T16:14:04.011Z,6.47
2023-05-07T16:16:34.482Z,3.80
2023-05-07T16:19:01.606Z,2.72
2023-05-07T16:21:28.462Z,3.30
2023-05-07T16:23:55.338Z,3.80
2023-05-07T16:26:22.073Z,1.92
2023-05-07T16:28:48.860Z,3.30
2023-05-07T16:31:15.630Z,3.55
2023-05-07T16:33:42.450Z,2.85
2023-05-07T16:36:09.190Z,2.38
2023-05-07T16:38:35.957Z,4.18
2023-05-07T16:41:02.759Z,4.10
2023-05-07T16:43:29.470Z,3.00
2023-05-07T16:45:56.327Z,2.25
2023-05-07T16:48:23.445Z,3.20
2023-05-07T16:50:50.200Z,4.25
2023-05-07T16:53:17.022Z,4.50
2023-05-07T16:55:43.893Z,4.95
2023-05-07T16:58:12.021Z,4.88
2023-05-07T17:00:50.052Z,2.80
2023-05-07T17:03:18.971Z,6.25
2023-05-07T17:05:46.383Z,2.33
2023-05-07T17:08:14.339Z,1.77
2023-05-07T17:10:42.219Z,3.17
2023-05-07T17:13:09.065Z,2.40
2023-05-07T17:15:35.867Z,5.72
2023-05-07T17:18:02.869Z,3.45
2023-05-07T17:20:29.841Z,9.15
2023-05-07T17:22:56.801Z,9.68
2023-05-07T17:25:24.251Z,8.15
2023-05-07T17:27:51.468Z,9.77
2023-05-07T17:30:19.193Z,16.92
2023-05-07T17:32:46.054Z,10.30
2023-05-07T17:35:13.021Z,10.88
2023-05-07T17:37:40.523Z,15.15
2023-05-07T17:40:07.927Z,14.00
2023-05-07T17:42:34.643Z,16.23
2023-05-07T17:45:01.406Z,16.45
2023-05-07T17:47:28.204Z,11.10
2023-05-07T17:49:55.218Z,32.42
2023-05-07T17:52:24.343Z,9.05
2023-05-07T17:54:51.079Z,12.00
2023-05-07T17:57:21.339Z,10.15
2023-05-07T17:59:48.052Z,11.55
2023-05-07T18:02:14.868Z,11.45
2023-05-07T18:04:41.637Z,12.27
2023-05-07T18:07:08.577Z,8.18
2023-05-07T18:09:35.454Z,11.00
2023-05-07T18:12:02.241Z,10.70
2023-05-07T18:14:29.413Z,5.75
2023-05-07T18:16:56.224Z,9.77
2023-05-07T18:19:22.946Z,8.18
2023-05-07T18:21:49.720Z,7.40
2023-05-07T18:24:17.672Z,13.55
2023-05-07T18:26:44.401Z,5.97
2023-05-07T18:29:11.224Z,8.98
2023-05-07T18:31:39.632Z,7.75
2023-05-07T18:34:06.688Z,5.57
2023-05-07T18:36:33.447Z,10.60
2023-05-07T18:39:01.447Z,12.10
2023-05-07T18:41:28.229Z,13.35
2023-05-07T18:43:54.937Z,10.68
2023-05-07T18:46:22.083Z,6.60
2023-05-07T18:48:48.937Z,9.90
2023-05-07T18:51:15.831Z,13.50
2023-05-07T18:53:42.621Z,11.80
2023-05-07T18:56:09.538Z,7.30
2023-05-07T18:58:36.307Z,8.32
2023-05-07T19:01:08.130Z,7.32
2023-05-07T19:03:38.043Z,8.27
2023-05-07T19:06:06.023Z,10.70
2023-05-07T19:08:33.128Z,13.48
2023-05-07T19:10:59.986Z,6.40
2023-05-07T19:13:27.721Z,6.82
2023-05-07T19:15:55.162Z,10.27
2023-05-07T19:18:22.212Z,9.38
2023-05-07T19:20:51.981Z,4.50
2023-05-07T19:23:21.354Z,6.88
2023-05-07T19:25:48.196Z,4.80
2023-05-07T19:28:14.901Z,7.80
2023-05-07T19:30:41.604Z,8.40
2023-05-07T19:33:08.475Z,5.15
2023-05-07T19:35:36.997Z,5.05
2023-05-07T19:38:03.898Z,4.10
2023-05-07T19:40:32.944Z,4.05
2023-05-07T19:43:00.608Z,4.82
2023-05-07T19:45:27.534Z,3.75
2023-05-07T19:47:54.444Z,5.90
2023-05-07T19:50:23.669Z,8.10
2023-05-07T19:52:50.581Z,4.75
2023-05-07T19:55:17.358Z,6.63
2023-05-07T19:57:49.935Z,3.10
2023-05-07T20:00:17.343Z,4.05
2023-05-07T20:02:44.435Z,4.18
2023-05-07T20:05:11.481Z,6.68
2023-05-07T20:07:38.202Z,4.95
2023-05-07T20:10:05.432Z,4.30
2023-05-07T20:12:32.575Z,1.85
2023-05-07T20:14:59.472Z,3.58
2023-05-07T20:17:26.231Z,23.98
2023-05-07T20:19:56.859Z,6.50
2023-05-07T20:22:23.993Z,3.38
2023-05-07T20:24:50.828Z,4.85
2023-05-07T20:27:19.782Z,2.60
2023-05-07T20:29:46.963Z,6.15
2023-05-07T20:32:22.263Z,8.25
2023-05-07T20:34:48.998Z,3.75
2023-05-07T20:37:15.926Z,4.82
2023-05-07T20:39:43.447Z,5.38
2023-05-07T20:42:10.449Z,1.45
2023-05-07T20:44:37.217Z,7.35
2023-05-07T20:47:04.361Z,2.75
2023-05-07T20:49:31.089Z,1.35
2023-05-07T20:51:58.065Z,2.40
2023-05-07T20:54:28.083Z,7.38
2023-05-07T20:56:57.006Z,4.10
2023-05-07T20:59:24.697Z,8.65
2023-05-07T21:01:51.815Z,4.70
2023-05-07T21:04:18.703Z,5.35
2023-05-07T21:06:45.560Z,3.38
2023-05-07T21:09:12.304Z,9.77
2023-05-07T21:11:39.171Z,3.58
2023-05-07T21:14:05.967Z,5.57
2023-05-07T21:16:33.119Z,3.60
2023-05-07T21:18:59.957Z,5.45
2023-05-07T21:21:26.688Z,11.40
2023-05-07T21:23:53.616Z,7.18
2023-05-07T21:26:21.841Z,10.38
2023-05-07T21:28:48.603Z,9.43
2023-05-07T21:31:15.541Z,10.15
2023-05-07T21:33:44.080Z,11.75
2023-05-07T21:36:11.707Z,16.02
2023-05-07T21:38:39.387Z,8.35
2023-05-07T21:41:06.843Z,5.22
2023-05-07T21:43:33.710Z,8.43
2023-05-07T21:46:00.843Z,7.22
2023-05-07T21:48:27.658Z,12.55
2023-05-07T21:51:06.031Z,9.27
2023-05-07T21:53:33.716Z,3.42
2023-05-07T21:56:01.610Z,5.03
2023-05-07T21:58:29.210Z,6.05
2023-05-07T22:00:55.939Z,2.83
2023-05-07T22:03:23.016Z,3.10
2023-05-07T22:05:50.801Z,3.83
2023-05-07T22:08:17.612Z,4.30
2023-05-07T22:10:44.661Z,12.50
2023-05-07T22:13:11.487Z,4.97
2023-05-07T22:15:53.168Z,7.35
2023-05-07T22:18:23.849Z,10.65
2023-05-07T22:20:53.972Z,11.40
2023-05-07T22:23:20.814Z,7.25
2023-05-07T22:25:47.661Z,11.32
2023-05-07T22:28:14.414Z,12.10
2023-05-07T22:30:41.337Z,11.60
2023-05-07T22:33:08.152Z,12.20
2023-05-07T22:35:34.997Z,12.10
2023-05-07T22:38:01.877Z,14.35
2023-05-07T22:40:28.612Z,9.70
2023-05-07T22:42:55.430Z,16.55
2023-05-07T22:45:22.467Z,14.05
2023-05-07T22:47:49.254Z,13.55
2023-05-07T22:50:16.215Z,12.23
2023-05-07T22:52:43.312Z,15.57
2023-05-07T22:55:10.305Z,11.85
2023-05-07T22:57:37.009Z,15.48
2023-05-07T23:00:04.648Z,17.38
2023-05-07T23:02:32.706Z,11.18
2023-05-07T23:05:01.061Z,14.93
2023-05-07T23:07:28.251Z,18.40
2023-05-07T23:09:55.022Z,18.60
2023-05-07T23:12:21.742Z,12.02
2023-05-07T23:14:48.482Z,12.75
2023-05-07T23:17:15.323Z,12.80
2023-05-07T23:19:42.421Z,10.90
2023-05-07T23:22:10.502Z,9.90
2023-05-07T23:24:37.461Z,8.25
2023-05-07T23:27:07.943Z,8.98
2023-05-07T23:29:35.367Z,8.00
2023-05-07T23:32:02.488Z,7.75
2023-05-07T23:34:30.051Z,10.38
2023-05-07T23:36:56.771Z,11.13
2023-05-07T23:39:23.515Z,7.38
2023-05-07T23:41:50.333Z,8.63
2023-05-07T23:44:17.344Z,7.70
2023-05-07T23:46:44.886Z,7.10
2023-05-07T23:49:12.235Z,4.95
2023-05-07T23:51:39.057Z,5.80
2023-05-07T23:54:06.736Z,1.92
2023-05-07T23:56:33.835Z,11.65
2023-05-07T23:59:00.665Z,9.15
